Time;durP1;ratioP1;P1;durP2;ratioP2;P2;SDS_P1;SDS_P2;PMS_P1;PMS_P2;Temp;Humidity;BMP_temperature;BMP_pressure;BME280_temperature;BME280_humidity;BME280_pressure;Samples;Min_cycle;Max_cycle;Signal;HPM_P1;HPM_P2
2022/07/15 00:00:27;;;;;;;;;;;24.20;77.10;;;;;;5075285;28;20293;-62
2022/07/15 00:02:53;;;;;;;;;;;24.20;77.00;;;;;;5093572;28;20412;-64
2022/07/15 00:05:19;;;;;;;;;;;24.40;77.40;;;;;;5075012;28;19920;-67
2022/07/15 00:07:44;;;;;;;;;;;24.10;76.90;;;;;;5093308;28;19920;-63
2022/07/15 00:10:18;;;;;;;;;;;24.20;77.30;;;;;;5093922;28;20377;-65
2022/07/15 00:12:45;;;;;;;;;;;24.20;76.40;;;;;;5093613;28;19920;-63
2022/07/15 00:15:10;;;;;;;;;;;24.10;77.40;;;;;;5074534;28;19971;-63
2022/07/15 00:17:36;;;;;;;;;;;24.00;77.10;;;;;;5075167;28;19963;-64
2022/07/15 00:20:02;;;;;;;;;;;23.90;77.20;;;;;;5093569;28;19950;-62
2022/07/15 00:22:27;;;;;;;;;;;24.10;77.10;;;;;;5093406;28;20378;-64
2022/07/15 00:24:53;;;;;;;;;;;24.00;76.60;;;;;;5093415;28;19934;-63
2022/07/15 00:27:19;;;;;;;;;;;24.20;77.40;;;;;;5070451;28;19920;-64
2022/07/15 00:29:44;;;;;;;;;;;23.90;77.00;;;;;;5088860;28;20374;-66
2022/07/15 00:32:10;;;;;;;;;;;24.00;77.20;;;;;;5071567;28;19920;-63
2022/07/15 00:34:36;;;;;;;;;;;24.20;77.20;;;;;;5067326;28;19921;-63
2022/07/15 00:37:01;;;;;;;;;;;24.20;77.30;;;;;;5063756;28;19928;-63
2022/07/15 00:39:27;;;;;;;;;;;24.00;76.90;;;;;;5073719;28;19973;-63
2022/07/15 00:41:53;;;;;;;;;;;24.10;77.30;;;;;;5073011;28;19931;-65
2022/07/15 00:44:18;;;;;;;;;;;24.30;77.30;;;;;;5088953;28;19921;-63
2022/07/15 00:46:44;;;;;;;;;;;24.10;77.40;;;;;;5075351;28;19924;-62
2022/07/15 00:49:09;;;;;;;;;;;24.30;77.30;;;;;;5075405;28;19920;-62
2022/07/15 00:51:36;;;;;;;;;;;24.10;77.30;;;;;;5076892;28;19959;-62
2022/07/15 00:54:02;;;;;;;;;;;24.10;77.30;;;;;;5076613;28;19932;-62
2022/07/15 00:56:28;;;;;;;;;;;23.90;77.40;;;;;;5058990;28;19924;-62
2022/07/15 00:58:53;;;;;;;;;;;24.00;77.30;;;;;;5074316;28;19959;-65
2022/07/15 01:01:19;;;;;;;;;;;24.20;77.40;;;;;;5076521;28;19920;-63
2022/07/15 01:03:45;;;;;;;;;;;24.20;77.30;;;;;;5075703;28;19927;-62
2022/07/15 01:06:11;;;;;;;;;;;24.30;77.80;;;;;;5075532;28;19924;-62
2022/07/15 01:08:37;;;;;;;;;;;24.20;77.50;;;;;;5075446;28;20281;-65
2022/07/15 01:11:02;;;;;;;;;;;24.00;77.60;;;;;;5075022;28;20419;-63
2022/07/15 01:13:28;;;;;;;;;;;24.10;77.30;;;;;;5076577;28;19921;-64
2022/07/15 01:15:54;;;;;;;;;;;23.80;77.50;;;;;;5075014;28;20281;-63
2022/07/15 01:18:19;;;;;;;;;;;24.10;77.50;;;;;;5075226;28;20282;-62
2022/07/15 01:20:48;;;;;;;;;;;23.80;77.50;;;;;;5074240;28;19973;-63
2022/07/15 01:23:16;;;;;;;;;;;24.00;77.00;;;;;;5075764;28;19927;-64
2022/07/15 01:25:44;;;;;;;;;;;24.20;77.90;;;;;;5075863;28;19924;-62
2022/07/15 01:28:10;;;;;;;;;;;24.20;77.60;;;;;;5074215;28;19920;-62
2022/07/15 01:30:36;;;;;;;;;;;23.80;77.30;;;;;;5075106;28;20381;-63
2022/07/15 01:33:01;;;;;;;;;;;24.10;77.50;;;;;;5058015;28;19927;-63
2022/07/15 01:35:28;;;;;;;;;;;23.80;77.50;;;;;;5074947;28;19928;-66
2022/07/15 01:37:53;;;;;;;;;;;24.20;77.40;;;;;;5074587;28;20009;-63
2022/07/15 01:40:19;;;;;;;;;;;24.00;77.50;;;;;;5073586;28;19994;-65
2022/07/15 01:42:45;;;;;;;;;;;23.90;77.40;;;;;;5075842;28;19927;-63
2022/07/15 01:45:10;;;;;;;;;;;24.30;77.70;;;;;;5075594;28;19920;-64
2022/07/15 01:47:43;;;;;;;;;;;23.90;77.40;;;;;;5073794;28;19973;-64
2022/07/15 01:50:09;;;;;;;;;;;24.10;76.40;;;;;;5075116;28;20014;-66
2022/07/15 01:52:35;;;;;;;;;;;24.00;77.30;;;;;;5075386;28;20278;-63
2022/07/15 01:55:01;;;;;;;;;;;24.00;77.70;;;;;;5076072;28;20006;-63
2022/07/15 01:57:26;;;;;;;;;;;24.00;77.70;;;;;;5073291;28;19920;-66
2022/07/15 01:59:52;;;;;;;;;;;23.70;77.40;;;;;;5075215;28;19931;-62
2022/07/15 02:02:17;;;;;;;;;;;23.90;77.60;;;;;;5072836;28;19921;-64
2022/07/15 02:04:43;;;;;;;;;;;24.00;77.60;;;;;;5073566;28;19920;-63
2022/07/15 02:07:09;;;;;;;;;;;23.80;77.60;;;;;;5076074;28;19976;-64
2022/07/15 02:09:34;;;;;;;;;;;23.70;77.40;;;;;;5075130;28;19982;-63
2022/07/15 02:12:00;;;;;;;;;;;23.80;77.60;;;;;;5074375;28;19939;-63
2022/07/15 02:14:25;;;;;;;;;;;23.80;77.50;;;;;;5073520;28;19943;-63
2022/07/15 02:16:51;;;;;;;;;;;23.80;77.60;;;;;;5073514;28;19927;-64
2022/07/15 02:19:16;;;;;;;;;;;23.80;77.60;;;;;;5075297;28;19951;-63
2022/07/15 02:21:42;;;;;;;;;;;23.70;77.60;;;;;;5074413;28;19924;-64
2022/07/15 02:24:08;;;;;;;;;;;23.90;77.70;;;;;;5073656;28;19927;-64
2022/07/15 02:26:33;;;;;;;;;;;24.00;77.70;;;;;;5079116;28;19919;-64
2022/07/15 02:28:59;;;;;;;;;;;23.70;77.40;;;;;;5095285;28;20383;-63
2022/07/15 02:31:25;;;;;;;;;;;23.80;77.70;;;;;;5095130;28;19920;-63
2022/07/15 02:33:51;;;;;;;;;;;23.80;77.60;;;;;;5089088;28;19920;-64
2022/07/15 02:36:16;;;;;;;;;;;23.90;77.70;;;;;;5094432;28;19920;-66
2022/07/15 02:38:42;;;;;;;;;;;23.60;77.50;;;;;;5095117;28;19977;-62
2022/07/15 02:41:08;;;;;;;;;;;23.70;77.70;;;;;;5094959;28;19920;-64
2022/07/15 02:43:33;;;;;;;;;;;23.50;77.60;;;;;;5093486;28;19967;-62
2022/07/15 02:45:59;;;;;;;;;;;23.70;77.40;;;;;;5075970;28;19965;-60
2022/07/15 02:48:25;;;;;;;;;;;23.70;77.90;;;;;;5076894;28;20289;-62
2022/07/15 02:50:51;;;;;;;;;;;23.70;77.70;;;;;;5094181;28;20007;-61
2022/07/15 02:53:18;;;;;;;;;;;23.40;77.50;;;;;;5074582;28;19917;-61
2022/07/15 02:55:43;;;;;;;;;;;23.70;77.80;;;;;;5086518;28;19927;-61
2022/07/15 02:58:09;;;;;;;;;;;23.40;77.50;;;;;;5094065;28;20365;-61
2022/07/15 03:00:35;;;;;;;;;;;23.70;77.70;;;;;;5093838;28;20361;-61
2022/07/15 03:03:00;;;;;;;;;;;23.40;77.30;;;;;;5094725;28;19927;-61
2022/07/15 03:05:26;;;;;;;;;;;23.60;77.60;;;;;;5093623;28;19927;-64
2022/07/15 03:07:51;;;;;;;;;;;23.40;77.60;;;;;;5092596;28;19974;-63
2022/07/15 03:10:17;;;;;;;;;;;23.80;77.80;;;;;;5093562;28;19920;-63
2022/07/15 03:12:43;;;;;;;;;;;23.80;77.50;;;;;;5094570;28;19935;-63
2022/07/15 03:15:08;;;;;;;;;;;23.30;77.50;;;;;;5094559;28;19920;-63
2022/07/15 03:17:34;;;;;;;;;;;23.80;77.30;;;;;;5093010;28;19919;-63
2022/07/15 03:20:00;;;;;;;;;;;23.70;77.60;;;;;;5076356;28;19924;-61
2022/07/15 03:22:27;;;;;;;;;;;23.50;77.50;;;;;;5094368;28;19920;-62
2022/07/15 03:24:53;;;;;;;;;;;23.70;77.80;;;;;;5093945;28;19924;-63
2022/07/15 03:27:18;;;;;;;;;;;23.70;78.00;;;;;;5093122;28;19920;-61
2022/07/15 03:29:44;;;;;;;;;;;23.90;77.80;;;;;;5093121;28;19920;-61
2022/07/15 03:32:15;;;;;;;;;;;23.60;77.80;;;;;;5093815;28;20007;-61
2022/07/15 03:34:41;;;;;;;;;;;23.80;77.30;;;;;;5093945;28;19920;-61
2022/07/15 03:37:07;;;;;;;;;;;23.70;78.00;;;;;;5093239;28;20036;-61
2022/07/15 03:39:32;;;;;;;;;;;23.50;77.60;;;;;;5091497;28;20386;-62
2022/07/15 03:41:58;;;;;;;;;;;23.30;77.70;;;;;;5092340;28;20365;-62
2022/07/15 03:44:24;;;;;;;;;;;23.50;77.70;;;;;;5093566;28;19926;-62
2022/07/15 03:46:49;;;;;;;;;;;23.70;77.80;;;;;;5093790;28;20053;-61
2022/07/15 03:49:15;;;;;;;;;;;23.50;77.10;;;;;;5092265;28;20003;-61
2022/07/15 03:51:41;;;;;;;;;;;23.70;77.90;;;;;;5092869;28;19959;-61
2022/07/15 03:54:07;;;;;;;;;;;23.50;77.80;;;;;;5094059;28;19995;-61
2022/07/15 03:56:32;;;;;;;;;;;23.50;77.80;;;;;;5075641;28;19927;-64
2022/07/15 03:58:58;;;;;;;;;;;23.40;77.60;;;;;;5091310;28;20041;-61
2022/07/15 04:01:24;;;;;;;;;;;23.50;77.60;;;;;;5093187;28;19924;-61
2022/07/15 04:03:50;;;;;;;;;;;23.60;77.70;;;;;;5093948;28;19920;-61
2022/07/15 04:06:16;;;;;;;;;;;23.70;78.00;;;;;;5093627;28;19950;-61
2022/07/15 04:08:41;;;;;;;;;;;23.90;77.80;;;;;;5093620;28;19920;-61
2022/07/15 04:11:07;;;;;;;;;;;23.50;77.60;;;;;;5091974;28;19920;-61
2022/07/15 04:13:32;;;;;;;;;;;23.40;77.60;;;;;;5093373;28;19920;-61
2022/07/15 04:15:58;;;;;;;;;;;23.30;77.60;;;;;;5075279;28;20381;-61
2022/07/15 04:18:24;;;;;;;;;;;23.60;77.70;;;;;;5093517;28;19927;-61
2022/07/15 04:20:49;;;;;;;;;;;23.50;77.60;;;;;;5094631;28;19920;-62
2022/07/15 04:23:15;;;;;;;;;;;23.60;77.40;;;;;;5097123;28;20274;-62
2022/07/15 04:25:41;;;;;;;;;;;23.40;77.80;;;;;;5096744;28;19920;-62
2022/07/15 04:28:07;;;;;;;;;;;23.50;77.60;;;;;;5097241;28;19920;-61
2022/07/15 04:30:32;;;;;;;;;;;23.50;77.60;;;;;;5096187;28;20312;-61
2022/07/15 04:32:58;;;;;;;;;;;23.60;77.50;;;;;;5096944;28;19974;-61
2022/07/15 04:35:24;;;;;;;;;;;23.40;77.70;;;;;;5097531;28;19927;-61
2022/07/15 04:37:49;;;;;;;;;;;23.40;77.70;;;;;;5096769;28;20327;-61
2022/07/15 04:40:15;;;;;;;;;;;23.40;77.80;;;;;;5097353;28;19920;-61
2022/07/15 04:42:41;;;;;;;;;;;23.50;77.50;;;;;;5095580;28;19926;-61
2022/07/15 04:45:06;;;;;;;;;;;23.20;77.70;;;;;;5079216;28;19920;-61
2022/07/15 04:47:32;;;;;;;;;;;23.60;77.50;;;;;;5097325;28;20376;-61
2022/07/15 04:52:45;;;;;;;;;;;23.60;77.30;;;;;;5096249;28;19923;-61
2022/07/15 04:55:11;;;;;;;;;;;23.50;76.70;;;;;;5095156;28;19926;-66
2022/07/15 04:57:37;;;;;;;;;;;23.40;77.70;;;;;;5097015;28;20002;-61
2022/07/15 05:00:03;;;;;;;;;;;23.50;77.90;;;;;;5097412;28;20365;-61
2022/07/15 05:02:29;;;;;;;;;;;23.70;78.10;;;;;;5095552;28;19927;-63
2022/07/15 05:04:54;;;;;;;;;;;23.60;78.00;;;;;;5077346;28;19920;-61
2022/07/15 05:07:20;;;;;;;;;;;23.60;78.00;;;;;;5096783;28;19927;-61
2022/07/15 05:09:45;;;;;;;;;;;23.20;77.60;;;;;;5096902;28;19965;-61
2022/07/15 05:12:11;;;;;;;;;;;23.60;77.90;;;;;;5096780;28;19931;-61
2022/07/15 05:14:40;;;;;;;;;;;23.60;77.90;;;;;;5095445;28;19920;-62
2022/07/15 05:17:06;;;;;;;;;;;23.70;78.00;;;;;;5076489;28;20313;-61
2022/07/15 05:19:32;;;;;;;;;;;23.70;77.80;;;;;;5076471;28;20010;-61
2022/07/15 05:21:57;;;;;;;;;;;23.70;77.90;;;;;;5076327;28;20021;-62
2022/07/15 05:24:23;;;;;;;;;;;23.70;77.60;;;;;;5088573;28;19926;-61
2022/07/15 05:26:49;;;;;;;;;;;23.80;77.60;;;;;;5095881;28;19979;-61
2022/07/15 05:29:15;;;;;;;;;;;23.90;77.50;;;;;;5096496;28;20427;-61
2022/07/15 05:31:40;;;;;;;;;;;23.70;77.20;;;;;;5094671;28;19975;-61
2022/07/15 05:34:06;;;;;;;;;;;24.10;77.70;;;;;;5096379;28;19978;-65
2022/07/15 05:36:32;;;;;;;;;;;23.70;77.60;;;;;;5086840;28;20014;-62
2022/07/15 05:38:58;;;;;;;;;;;23.80;77.40;;;;;;5096008;28;20412;-61
2022/07/15 05:41:23;;;;;;;;;;;23.90;77.50;;;;;;5095973;28;19955;-61
2022/07/15 05:43:50;;;;;;;;;;;23.90;77.10;;;;;;5095854;28;20369;-61
2022/07/15 05:46:16;;;;;;;;;;;24.00;76.90;;;;;;5094779;28;20377;-62
2022/07/15 05:48:45;;;;;;;;;;;23.90;76.60;;;;;;5077572;28;20002;-68
2022/07/15 05:51:11;;;;;;;;;;;24.00;77.70;;;;;;5094601;28;19920;-67
2022/07/15 05:53:37;;;;;;;;;;;24.20;77.20;;;;;;5095673;28;20379;-61
2022/07/15 05:56:03;;;;;;;;;;;24.00;77.40;;;;;;5094558;28;19989;-62
2022/07/15 05:58:29;;;;;;;;;;;23.80;76.60;;;;;;5094600;28;19927;-62
2022/07/15 06:00:55;;;;;;;;;;;23.80;77.10;;;;;;5095345;28;19929;-65
2022/07/15 06:03:21;;;;;;;;;;;23.70;77.20;;;;;;5094117;28;19927;-62
2022/07/15 06:05:47;;;;;;;;;;;23.80;77.30;;;;;;5095477;28;20018;-66
2022/07/15 06:08:13;;;;;;;;;;;24.00;76.80;;;;;;5093824;28;19928;-63
2022/07/15 06:10:38;;;;;;;;;;;23.80;77.20;;;;;;5095628;28;19927;-66
2022/07/15 06:13:04;;;;;;;;;;;23.70;77.30;;;;;;5095283;28;19926;-63
2022/07/15 06:15:30;;;;;;;;;;;23.90;77.70;;;;;;5095386;28;19916;-63
2022/07/15 06:17:56;;;;;;;;;;;24.10;77.30;;;;;;5094386;28;20011;-63
2022/07/15 06:20:21;;;;;;;;;;;24.20;77.40;;;;;;5076861;28;20485;-66
2022/07/15 06:22:47;;;;;;;;;;;24.60;77.60;;;;;;5095368;28;19920;-66
2022/07/15 06:25:13;;;;;;;;;;;24.70;76.80;;;;;;5094169;28;19920;-65
2022/07/15 06:27:39;;;;;;;;;;;24.90;76.40;;;;;;5094855;28;19969;-63
2022/07/15 06:30:05;;;;;;;;;;;25.20;76.30;;;;;;5093786;28;20369;-62
2022/07/15 06:32:31;;;;;;;;;;;25.20;75.20;;;;;;5094648;28;19920;-62
2022/07/15 06:34:58;;;;;;;;;;;25.40;75.30;;;;;;5093253;28;19920;-66
2022/07/15 06:37:24;;;;;;;;;;;25.30;75.00;;;;;;5095194;28;19926;-62
2022/07/15 06:39:50;;;;;;;;;;;25.40;74.80;;;;;;5094813;28;19920;-62
2022/07/15 06:42:15;;;;;;;;;;;25.50;75.10;;;;;;5075196;28;19927;-62
2022/07/15 06:44:41;;;;;;;;;;;25.70;75.30;;;;;;5093060;28;19920;-62
2022/07/15 06:47:07;;;;;;;;;;;25.30;75.40;;;;;;5094274;28;20365;-62
2022/07/15 06:49:34;;;;;;;;;;;25.50;75.90;;;;;;5094480;28;19924;-62
2022/07/15 06:52:00;;;;;;;;;;;25.10;75.00;;;;;;5094524;28;19920;-63
2022/07/15 06:54:26;;;;;;;;;;;25.40;75.50;;;;;;5093632;28;19927;-64
2022/07/15 06:56:52;;;;;;;;;;;25.40;75.20;;;;;;5094085;28;20381;-62
2022/07/15 06:59:17;;;;;;;;;;;25.40;75.20;;;;;;5094463;28;19927;-61
2022/07/15 07:01:43;;;;;;;;;;;25.40;75.80;;;;;;5093310;28;19920;-62
2022/07/15 07:04:09;;;;;;;;;;;25.20;75.30;;;;;;5094410;28;19920;-62
2022/07/15 07:06:35;;;;;;;;;;;25.10;75.80;;;;;;5093243;28;20403;-62
2022/07/15 07:09:00;;;;;;;;;;;25.20;75.90;;;;;;5094353;28;19920;-62
2022/07/15 07:11:26;;;;;;;;;;;25.40;76.20;;;;;;5093278;28;19927;-62
2022/07/15 07:13:51;;;;;;;;;;;25.20;75.80;;;;;;5094858;28;19930;-62
2022/07/15 07:16:17;;;;;;;;;;;25.20;76.00;;;;;;5093577;28;19966;-62
2022/07/15 07:18:45;;;;;;;;;;;24.90;75.80;;;;;;5076085;28;20297;-61
2022/07/15 07:21:11;;;;;;;;;;;25.40;76.30;;;;;;5094364;28;20011;-62
2022/07/15 07:23:39;;;;;;;;;;;25.20;76.30;;;;;;5092931;28;20000;-62
2022/07/15 07:26:05;;;;;;;;;;;25.30;76.20;;;;;;5092933;28;19973;-62
2022/07/15 07:28:31;;;;;;;;;;;25.20;76.00;;;;;;5094378;28;20292;-62
2022/07/15 07:30:57;;;;;;;;;;;25.10;75.90;;;;;;5075796;28;19920;-64
2022/07/15 07:33:22;;;;;;;;;;;25.30;76.20;;;;;;5075141;28;19920;-61
2022/07/15 07:35:48;;;;;;;;;;;25.40;76.10;;;;;;5093900;28;19920;-61
2022/07/15 07:38:13;;;;;;;;;;;25.70;76.10;;;;;;5093009;28;19926;-61
2022/07/15 07:40:39;;;;;;;;;;;25.40;75.70;;;;;;5093603;28;19927;-62
2022/07/15 07:43:05;;;;;;;;;;;25.50;75.50;;;;;;5093875;28;19920;-61
2022/07/15 07:45:30;;;;;;;;;;;25.80;75.60;;;;;;5094180;28;19920;-62
2022/07/15 07:47:56;;;;;;;;;;;25.70;75.40;;;;;;5092807;28;20357;-61
2022/07/15 07:50:22;;;;;;;;;;;25.50;75.30;;;;;;5077245;28;19967;-62
2022/07/15 07:52:47;;;;;;;;;;;25.70;75.10;;;;;;5072806;28;19920;-65
2022/07/15 07:55:14;;;;;;;;;;;26.00;75.50;;;;;;5087705;28;19927;-62
2022/07/15 07:57:47;;;;;;;;;;;25.80;75.30;;;;;;5096066;28;19927;-62
2022/07/15 08:00:13;;;;;;;;;;;25.90;74.30;;;;;;5079240;28;19976;-62
2022/07/15 08:02:38;;;;;;;;;;;25.90;74.50;;;;;;5061719;28;19923;-63
2022/07/15 08:05:05;;;;;;;;;;;25.70;74.40;;;;;;5097141;28;19920;-63
2022/07/15 08:07:30;;;;;;;;;;;25.60;74.10;;;;;;5096414;28;19920;-62
2022/07/15 08:09:56;;;;;;;;;;;25.70;74.40;;;;;;5077386;28;19920;-62
2022/07/15 08:12:21;;;;;;;;;;;25.60;74.10;;;;;;5096360;28;19924;-62
2022/07/15 08:14:50;;;;;;;;;;;25.60;74.20;;;;;;5097255;28;19927;-62
2022/07/15 08:17:16;;;;;;;;;;;25.30;73.60;;;;;;5096070;28;19920;-61
2022/07/15 08:19:41;;;;;;;;;;;25.70;74.10;;;;;;5078076;28;19935;-62
2022/07/15 08:22:10;;;;;;;;;;;25.50;73.80;;;;;;5097085;28;20357;-62
2022/07/15 08:24:37;;;;;;;;;;;25.40;72.60;;;;;;5097052;28;19972;-62
2022/07/15 08:27:02;;;;;;;;;;;25.30;73.70;;;;;;5078310;28;20372;-62
2022/07/15 08:29:28;;;;;;;;;;;25.40;73.30;;;;;;5094259;28;19973;-62
2022/07/15 08:31:54;;;;;;;;;;;25.10;73.40;;;;;;5060893;28;19920;-62
2022/07/15 08:34:20;;;;;;;;;;;25.20;72.90;;;;;;5089855;28;19974;-61
2022/07/15 08:36:46;;;;;;;;;;;25.40;74.40;;;;;;5092519;28;19971;-63
2022/07/15 08:39:12;;;;;;;;;;;25.40;73.40;;;;;;5094159;28;19924;-61
2022/07/15 08:41:38;;;;;;;;;;;25.40;73.70;;;;;;5095412;28;20011;-66
2022/07/15 08:44:04;;;;;;;;;;;25.40;73.40;;;;;;5096245;28;19966;-61
2022/07/15 08:46:29;;;;;;;;;;;25.40;73.50;;;;;;5096816;28;19919;-61
2022/07/15 08:48:57;;;;;;;;;;;25.50;73.40;;;;;;5095539;28;20415;-63
2022/07/15 08:51:24;;;;;;;;;;;25.50;73.80;;;;;;5076787;28;19920;-63
2022/07/15 08:53:51;;;;;;;;;;;25.50;72.60;;;;;;5095131;28;19981;-63
2022/07/15 08:56:18;;;;;;;;;;;25.50;73.50;;;;;;5095105;28;19959;-63
2022/07/15 08:58:44;;;;;;;;;;;25.70;73.80;;;;;;5096565;28;20352;-62
2022/07/15 09:01:09;;;;;;;;;;;25.80;73.50;;;;;;5077196;28;19986;-63
2022/07/15 09:03:35;;;;;;;;;;;25.40;73.10;;;;;;5077228;28;19927;-67
2022/07/15 09:06:01;;;;;;;;;;;25.50;73.30;;;;;;5093746;28;20011;-62
2022/07/15 09:08:27;;;;;;;;;;;25.40;72.70;;;;;;5074517;28;19920;-64
2022/07/15 09:10:56;;;;;;;;;;;25.70;72.40;;;;;;5088555;28;20506;-62
2022/07/15 09:13:32;;;;;;;;;;;25.50;72.20;;;;;;5077183;28;19927;-62
2022/07/15 09:16:01;;;;;;;;;;;25.50;72.30;;;;;;5094250;28;19927;-64
2022/07/15 09:18:28;;;;;;;;;;;25.80;72.60;;;;;;5095428;28;19926;-62
2022/07/15 09:20:55;;;;;;;;;;;25.50;73.10;;;;;;5095401;28;20017;-64
2022/07/15 09:23:29;;;;;;;;;;;25.40;73.10;;;;;;5095115;28;19958;-64
2022/07/15 09:25:55;;;;;;;;;;;25.70;73.70;;;;;;5095687;28;20002;-64
2022/07/15 09:28:20;;;;;;;;;;;25.70;73.80;;;;;;5095720;28;20391;-62
2022/07/15 09:33:34;;;;;;;;;;;25.40;72.20;;;;;;5094830;28;19920;-67
2022/07/15 09:36:08;;;;;;;;;;;25.50;73.40;;;;;;5070882;28;19920;-65
2022/07/15 09:38:34;;;;;;;;;;;25.80;71.90;;;;;;5076892;28;20017;-63
2022/07/15 09:41:00;;;;;;;;;;;25.60;73.10;;;;;;5094206;28;19920;-67
2022/07/15 09:43:25;;;;;;;;;;;25.90;73.90;;;;;;5077172;28;19924;-62
2022/07/15 09:45:59;;;;;;;;;;;25.80;73.50;;;;;;5071825;28;20002;-63
2022/07/15 09:48:24;;;;;;;;;;;25.90;72.60;;;;;;5095316;28;19973;-63
2022/07/15 09:50:50;;;;;;;;;;;25.60;73.60;;;;;;5076967;28;20349;-65
2022/07/15 09:53:16;;;;;;;;;;;26.00;74.20;;;;;;5092964;28;20301;-64
2022/07/15 09:55:42;;;;;;;;;;;25.50;73.40;;;;;;5093839;28;19935;-64
2022/07/15 09:58:08;;;;;;;;;;;25.60;73.40;;;;;;5093926;28;19924;-66
2022/07/15 10:00:34;;;;;;;;;;;25.80;76.10;;;;;;5076585;28;19931;-62
2022/07/15 10:03:00;;;;;;;;;;;25.80;76.00;;;;;;5094935;28;20290;-62
2022/07/15 10:05:27;;;;;;;;;;;25.30;75.10;;;;;;5095276;28;19943;-64
2022/07/15 10:07:56;;;;;;;;;;;25.70;74.30;;;;;;5091959;28;19935;-63
2022/07/15 10:10:24;;;;;;;;;;;25.60;74.60;;;;;;5094452;28;19969;-63
2022/07/15 10:13:06;;;;;;;;;;;25.60;73.00;;;;;;5094193;28;19981;-65
2022/07/15 10:15:42;;;;;;;;;;;25.40;72.70;;;;;;5077082;28;20308;-62
2022/07/15 10:18:23;;;;;;;;;;;25.40;72.60;;;;;;5076107;28;19919;-64
2022/07/15 10:20:52;;;;;;;;;;;25.70;72.60;;;;;;5076175;28;20007;-63
2022/07/15 10:23:32;;;;;;;;;;;25.60;72.60;;;;;;5094362;28;19931;-61
2022/07/15 10:26:07;;;;;;;;;;;25.60;72.40;;;;;;5076620;28;19920;-64
2022/07/15 10:28:37;;;;;;;;;;;25.30;72.20;;;;;;5059575;28;19923;-62
2022/07/15 10:31:35;;;;;;;;;;;25.00;73.00;;;;;;5093477;28;19923;-63
2022/07/15 10:34:07;;;;;;;;;;;25.10;71.80;;;;;;5012452;28;19985;-62
2022/07/15 10:36:49;;;;;;;;;;;25.10;71.60;;;;;;5012435;28;19931;-62
2022/07/15 10:39:15;;;;;;;;;;;25.30;72.40;;;;;;4996058;28;19922;-62
2022/07/15 10:41:47;;;;;;;;;;;25.10;74.30;;;;;;5003395;28;20571;-61
2022/07/15 10:44:13;;;;;;;;;;;25.10;72.50;;;;;;5010774;28;19965;-62
2022/07/15 10:46:38;;;;;;;;;;;25.10;73.50;;;;;;5010605;28;19968;-62
2022/07/15 10:49:08;;;;;;;;;;;25.10;73.30;;;;;;5012213;28;20326;-67
2022/07/15 10:51:36;;;;;;;;;;;25.20;72.30;;;;;;5011463;28;19975;-65
2022/07/15 10:54:02;;;;;;;;;;;25.10;72.20;;;;;;5011267;28;19929;-62
2022/07/15 10:56:37;;;;;;;;;;;25.00;73.50;;;;;;5011868;28;20011;-63
2022/07/15 10:59:23;;;;;;;;;;;24.90;71.90;;;;;;5011216;28;19964;-62
2022/07/15 11:01:49;;;;;;;;;;;25.00;71.90;;;;;;5010424;28;19948;-65
2022/07/15 11:04:21;;;;;;;;;;;25.30;73.50;;;;;;5012110;28;20298;-62
2022/07/15 11:07:02;;;;;;;;;;;25.10;71.80;;;;;;5010412;28;19921;-64
2022/07/15 11:09:46;;;;;;;;;;;25.00;71.80;;;;;;5041312;28;19935;-62
2022/07/15 11:12:15;;;;;;;;;;;24.80;71.80;;;;;;5081564;28;20366;-61
2022/07/15 11:14:48;;;;;;;;;;;25.10;72.00;;;;;;5093392;28;19927;-61
2022/07/15 11:17:17;;;;;;;;;;;24.90;71.90;;;;;;5090986;28;21826;-65
2022/07/15 11:19:44;;;;;;;;;;;25.00;73.30;;;;;;5092085;28;19920;-65
2022/07/15 11:22:10;;;;;;;;;;;25.10;73.50;;;;;;5087608;28;20382;-64
2022/07/15 11:24:35;;;;;;;;;;;25.00;73.20;;;;;;5093726;28;19920;-62
2022/07/15 11:27:01;;;;;;;;;;;24.90;73.40;;;;;;5074480;28;20304;-67
2022/07/15 11:29:47;;;;;;;;;;;25.00;73.10;;;;;;5088173;28;19927;-70
2022/07/15 11:32:13;;;;;;;;;;;24.80;72.80;;;;;;5087570;28;20362;-64
2022/07/15 11:34:49;;;;;;;;;;;25.00;73.50;;;;;;5075605;28;20385;-62
2022/07/15 11:37:18;;;;;;;;;;;24.90;73.60;;;;;;5093560;28;20040;-63
2022/07/15 11:39:45;;;;;;;;;;;24.70;73.10;;;;;;5079894;28;19920;-62
2022/07/15 11:45:02;;;;;;;;;;;24.90;72.10;;;;;;5070480;28;19927;-63
2022/07/15 11:47:27;;;;;;;;;;;24.70;73.00;;;;;;5075833;28;19927;-61
2022/07/15 11:49:57;;;;;;;;;;;24.80;73.00;;;;;;5087019;28;19927;-62
2022/07/15 11:52:23;;;;;;;;;;;24.80;73.40;;;;;;5082627;28;19920;-66
2022/07/15 11:54:49;;;;;;;;;;;24.80;73.30;;;;;;5092315;28;19926;-62
2022/07/15 11:57:16;;;;;;;;;;;24.60;72.80;;;;;;5093198;28;20015;-64
2022/07/15 11:59:56;;;;;;;;;;;24.70;71.80;;;;;;5074766;28;19928;-62
2022/07/15 12:02:25;;;;;;;;;;;24.80;71.70;;;;;;5073303;28;19932;-62
2022/07/15 12:04:51;;;;;;;;;;;24.70;71.70;;;;;;5091517;28;20317;-65
2022/07/15 12:07:17;;;;;;;;;;;24.40;72.90;;;;;;5093168;28;19924;-63
2022/07/15 12:09:43;;;;;;;;;;;24.50;72.80;;;;;;5092973;28;19924;-65
2022/07/15 12:12:09;;;;;;;;;;;24.40;72.60;;;;;;5090303;28;20026;-64
2022/07/15 12:14:35;;;;;;;;;;;24.60;72.90;;;;;;5067383;28;19921;-66
2022/07/15 12:17:01;;;;;;;;;;;24.80;72.90;;;;;;5071563;28;19924;-62
2022/07/15 12:19:27;;;;;;;;;;;24.80;73.10;;;;;;5086820;28;20442;-63
2022/07/15 12:21:57;;;;;;;;;;;24.70;73.40;;;;;;5078768;28;19923;-63
2022/07/15 12:24:43;;;;;;;;;;;24.40;71.90;;;;;;5071173;28;19932;-64
2022/07/15 12:27:10;;;;;;;;;;;24.40;73.40;;;;;;5090591;28;19938;-65
2022/07/15 12:29:35;;;;;;;;;;;24.60;73.60;;;;;;5092819;28;20330;-64
2022/07/15 12:32:02;;;;;;;;;;;24.50;73.40;;;;;;5091934;28;19924;-65
2022/07/15 12:34:46;;;;;;;;;;;24.50;73.80;;;;;;5091868;28;19922;-70
2022/07/15 12:37:13;;;;;;;;;;;24.80;72.60;;;;;;5092888;28;19920;-65
2022/07/15 12:40:02;;;;;;;;;;;24.90;74.50;;;;;;5092302;28;20375;-64
2022/07/15 12:42:50;;;;;;;;;;;24.70;73.20;;;;;;5087184;28;19920;-75
2022/07/15 12:45:16;;;;;;;;;;;24.80;73.40;;;;;;5095821;28;19965;-62
2022/07/15 12:47:57;;;;;;;;;;;24.80;75.00;;;;;;5096946;28;19962;-64
2022/07/15 12:50:22;;;;;;;;;;;24.50;73.90;;;;;;5090371;28;19966;-66
2022/07/15 12:52:48;;;;;;;;;;;24.30;74.50;;;;;;5095689;28;19967;-64
2022/07/15 12:55:15;;;;;;;;;;;24.30;74.80;;;;;;5092431;28;19920;-64
2022/07/15 12:57:40;;;;;;;;;;;24.60;75.60;;;;;;5096777;28;19927;-72
2022/07/15 13:00:11;;;;;;;;;;;24.50;75.50;;;;;;5095973;28;20003;-72
2022/07/15 13:02:55;;;;;;;;;;;24.40;75.50;;;;;;5094822;28;19966;-67
2022/07/15 13:05:21;;;;;;;;;;;24.30;74.40;;;;;;5078471;28;19924;-64
2022/07/15 13:07:46;;;;;;;;;;;24.40;75.60;;;;;;5096110;28;20331;-71
2022/07/15 13:10:12;;;;;;;;;;;24.30;75.50;;;;;;5096169;28;19965;-72
2022/07/15 13:12:38;;;;;;;;;;;24.60;75.70;;;;;;5095491;28;19919;-73
2022/07/15 13:15:04;;;;;;;;;;;24.60;76.10;;;;;;5072733;28;20011;-67
2022/07/15 13:17:30;;;;;;;;;;;24.60;75.30;;;;;;5081061;28;20338;-64
2022/07/15 13:19:55;;;;;;;;;;;24.60;76.10;;;;;;5096134;28;19923;-65
2022/07/15 13:22:21;;;;;;;;;;;24.60;75.70;;;;;;5095205;28;20018;-66
2022/07/15 13:24:46;;;;;;;;;;;24.70;76.10;;;;;;5093737;28;19928;-66
2022/07/15 13:27:12;;;;;;;;;;;24.70;76.20;;;;;;5088603;28;20007;-69
2022/07/15 13:29:38;;;;;;;;;;;24.70;76.20;;;;;;5096226;28;19927;-69
2022/07/15 13:32:04;;;;;;;;;;;24.60;75.70;;;;;;5095514;28;19943;-64
2022/07/15 13:34:29;;;;;;;;;;;24.50;76.10;;;;;;5095827;28;19920;-67
2022/07/15 13:36:55;;;;;;;;;;;24.60;76.60;;;;;;5095169;28;20399;-68
2022/07/15 13:39:21;;;;;;;;;;;24.50;76.50;;;;;;5077743;28;19928;-66
2022/07/15 13:41:47;;;;;;;;;;;24.50;76.80;;;;;;5095392;28;20002;-65
2022/07/15 13:44:12;;;;;;;;;;;24.50;76.70;;;;;;5095552;28;20289;-65
2022/07/15 13:46:38;;;;;;;;;;;24.50;76.80;;;;;;5095112;28;19920;-66
2022/07/15 13:49:04;;;;;;;;;;;24.50;77.10;;;;;;5095343;28;19982;-69
2022/07/15 13:51:32;;;;;;;;;;;24.60;76.80;;;;;;5093548;28;19978;-68
2022/07/15 13:53:58;;;;;;;;;;;24.50;76.00;;;;;;5090271;28;20362;-68
2022/07/15 13:56:24;;;;;;;;;;;24.60;76.50;;;;;;5092996;28;19919;-64
2022/07/15 13:58:50;;;;;;;;;;;24.30;76.90;;;;;;5093659;28;19924;-66
2022/07/15 14:01:16;;;;;;;;;;;24.40;77.20;;;;;;5076233;28;20369;-72
2022/07/15 14:03:41;;;;;;;;;;;24.40;77.30;;;;;;5094354;28;19928;-66
2022/07/15 14:06:07;;;;;;;;;;;24.40;77.30;;;;;;5095561;28;19920;-64
2022/07/15 14:08:33;;;;;;;;;;;24.50;77.30;;;;;;5093268;28;19927;-67
2022/07/15 14:10:59;;;;;;;;;;;24.30;77.30;;;;;;5071519;28;19917;-65
2022/07/15 14:13:24;;;;;;;;;;;24.40;77.30;;;;;;5083911;28;20329;-65
2022/07/15 14:15:50;;;;;;;;;;;24.50;77.30;;;;;;5095280;28;20002;-66
2022/07/15 14:18:15;;;;;;;;;;;24.40;77.30;;;;;;5093783;28;19920;-66
2022/07/15 14:20:41;;;;;;;;;;;24.30;77.20;;;;;;5094700;28;19928;-66
2022/07/15 14:23:07;;;;;;;;;;;24.60;77.40;;;;;;5089061;28;19920;-66